This is the latest recevied weather packets stored in our database for station/object KC9GSD. If no packets are shown the sender has not sent any weather packets the latest 1 day(s).
| Time | Temp. | Humidity | Pressure | Rain* | Wind** | Luminosity | Snow |
|---|---|---|---|---|---|---|---|
| 1778082986 | 23.89° C | 72% | 1013 hPa | 0 mm | - | 577 W/m² | - |
| 1778081241 | 21.67° C | 78% | 1013.5 hPa | 0 mm | - | 343 W/m² | - |
| 1778080638 | 21.67° C | 80% | 1013.7 hPa | 0 mm | - | 253 W/m² | - |
| 1778080334 | 21.11° C | 81% | 1013.5 hPa | 0 mm | - | 267 W/m² | - |
| 1778080030 | 20.56° C | 84% | 1013.5 hPa | 0 mm | - | 251 W/m² | - |
| 1778079121 | 20° C | 84% | 1013.8 hPa | 0 mm | - | 92 W/m² | - |
| 1778078515 | 20° C | 84% | 1013.9 hPa | 0 mm | - | 94 W/m² | - |
| 1778078213 | 20° C | 84% | 1013.9 hPa | 0 mm | - | 75 W/m² | - |
| 1778077609 | 20° C | 85% | 1013.9 hPa | 0 mm | - | 95 W/m² | - |
| 1778077004 | 19.44° C | 86% | 1014.2 hPa | 0 mm | - | 66 W/m² | - |
| 1778076399 | 19.44° C | 86% | 1014.3 hPa | 0 mm | - | 31 W/m² | - |
| 1778074276 | 18.89° C | 88% | 1014 hPa | 0 mm | - | 22 W/m² | - |
| 1778073368 | 18.89° C | 86% | 1014.1 hPa | 0 mm | - | 15 W/m² | - |
| 1778073064 | 18.89° C | 86% | 1014.1 hPa | 0 mm | - | 14 W/m² | - |
| 1778072761 | 18.89° C | 86% | 1014.1 hPa | 0 mm | - | 12 W/m² | - |
| 1778072157 | 18.89° C | 86% | 1013.8 hPa | 0 mm | - | 11 W/m² | - |
| 1778069131 | 18.89° C | 84% | 1012.7 hPa | 0 mm | - | 11 W/m² | - |
| 1778068526 | 18.89° C | 84% | 1012.6 hPa | 0 mm | - | 23 W/m² | - |
| 1778067921 | 18.89° C | 84% | 1012.1 hPa | 0 mm | - | 24 W/m² | - |
| 1778067317 | 18.89° C | 84% | 1012.4 hPa | 0 mm | - | 16 W/m² | - |
| 1778065197 | 18.89° C | 83% | 1011.9 hPa | 0 mm | - | 2 W/m² | - |
| 1778064893 | 18.89° C | 82% | 1011.9 hPa | 0 mm | - | 2 W/m² | - |
| 1778064591 | 18.89° C | 82% | 1011.9 hPa | 0 mm | - | 1 W/m² | - |
| 1778064289 | 18.89° C | 81% | 1012 hPa | 0 mm | - | 1 W/m² | - |
| 1778063079 | 18.89° C | 80% | 1011.6 hPa | 0 mm | - | 0 W/m² | - |
* Rain latest hour (hover to see other rain measurements)
** Current wind speed in m/s (hover to see current wind gust speed)